sensor_id;sensor_type;location;lat;lon;timestamp;P1;durP1;ratioP1;P2;durP2;ratioP2
5247;SDS011;2644;52.420;13.580;2022-08-25T00:00:36;21.40;;;10.13;;
5247;SDS011;2644;52.420;13.580;2022-08-25T00:01:45;17.25;;;10.27;;
5247;SDS011;2644;52.420;13.580;2022-08-25T00:02:49;15.30;;;10.00;;
5247;SDS011;2644;52.420;13.580;2022-08-25T00:03:57;15.95;;;10.18;;
5247;SDS011;2644;52.420;13.580;2022-08-25T00:05:00;12.93;;;9.70;;
5247;SDS011;2644;52.420;13.580;2022-08-25T00:06:05;13.95;;;9.95;;
5247;SDS011;2644;52.420;13.580;2022-08-25T00:07:07;18.80;;;9.85;;
5247;SDS011;2644;52.420;13.580;2022-08-25T00:08:11;17.73;;;10.80;;
5247;SDS011;2644;52.420;13.580;2022-08-25T00:09:16;22.10;;;10.10;;
5247;SDS011;2644;52.420;13.580;2022-08-25T00:10:20;19.50;;;10.30;;
5247;SDS011;2644;52.420;13.580;2022-08-25T00:11:22;16.02;;;10.00;;
5247;SDS011;2644;52.420;13.580;2022-08-25T00:12:25;14.05;;;10.10;;
5247;SDS011;2644;52.420;13.580;2022-08-25T00:13:27;15.68;;;10.52;;
5247;SDS011;2644;52.420;13.580;2022-08-25T00:14:31;17.70;;;12.27;;
5247;SDS011;2644;52.420;13.580;2022-08-25T00:15:38;20.08;;;10.70;;
5247;SDS011;2644;52.420;13.580;2022-08-25T00:16:41;18.85;;;11.00;;
5247;SDS011;2644;52.420;13.580;2022-08-25T00:17:44;14.88;;;10.35;;
5247;SDS011;2644;52.420;13.580;2022-08-25T00:18:48;16.92;;;10.13;;
5247;SDS011;2644;52.420;13.580;2022-08-25T00:19:54;20.10;;;9.55;;
5247;SDS011;2644;52.420;13.580;2022-08-25T00:20:56;14.75;;;10.18;;
5247;SDS011;2644;52.420;13.580;2022-08-25T00:21:59;13.40;;;10.00;;
5247;SDS011;2644;52.420;13.580;2022-08-25T00:23:02;15.75;;;10.20;;
5247;SDS011;2644;52.420;13.580;2022-08-25T00:24:09;13.07;;;10.02;;
5247;SDS011;2644;52.420;13.580;2022-08-25T00:25:12;14.40;;;10.00;;
5247;SDS011;2644;52.420;13.580;2022-08-25T00:26:16;15.38;;;10.07;;
5247;SDS011;2644;52.420;13.580;2022-08-25T00:27:18;10.85;;;9.30;;
5247;SDS011;2644;52.420;13.580;2022-08-25T00:28:22;11.73;;;9.95;;
5247;SDS011;2644;52.420;13.580;2022-08-25T00:29:24;15.57;;;10.15;;
5247;SDS011;2644;52.420;13.580;2022-08-25T00:30:28;13.90;;;10.20;;
5247;SDS011;2644;52.420;13.580;2022-08-25T00:31:32;17.58;;;10.30;;
5247;SDS011;2644;52.420;13.580;2022-08-25T00:32:39;12.30;;;10.05;;
5247;SDS011;2644;52.420;13.580;2022-08-25T00:33:41;12.30;;;9.52;;
5247;SDS011;2644;52.420;13.580;2022-08-25T00:34:45;16.05;;;10.52;;
5247;SDS011;2644;52.420;13.580;2022-08-25T00:35:47;17.70;;;9.95;;
5247;SDS011;2644;52.420;13.580;2022-08-25T00:36:51;13.80;;;10.13;;
5247;SDS011;2644;52.420;13.580;2022-08-25T00:37:54;15.95;;;10.35;;
5247;SDS011;2644;52.420;13.580;2022-08-25T00:38:57;12.70;;;10.25;;
5247;SDS011;2644;52.420;13.580;2022-08-25T00:39:59;15.40;;;9.75;;
5247;SDS011;2644;52.420;13.580;2022-08-25T00:41:03;17.48;;;9.35;;
5247;SDS011;2644;52.420;13.580;2022-08-25T00:42:08;13.98;;;10.00;;
5247;SDS011;2644;52.420;13.580;2022-08-25T00:43:16;17.63;;;10.40;;
5247;SDS011;2644;52.420;13.580;2022-08-25T00:44:19;14.80;;;10.90;;
5247;SDS011;2644;52.420;13.580;2022-08-25T00:45:22;19.58;;;10.27;;
5247;SDS011;2644;52.420;13.580;2022-08-25T00:46:26;17.00;;;9.75;;
5247;SDS011;2644;52.420;13.580;2022-08-25T00:47:33;21.70;;;10.20;;
5247;SDS011;2644;52.420;13.580;2022-08-25T00:48:35;12.90;;;10.23;;
5247;SDS011;2644;52.420;13.580;2022-08-25T00:49:44;12.63;;;10.00;;
5247;SDS011;2644;52.420;13.580;2022-08-25T00:50:50;13.70;;;10.65;;
5247;SDS011;2644;52.420;13.580;2022-08-25T00:51:54;19.38;;;11.10;;
5247;SDS011;2644;52.420;13.580;2022-08-25T00:53:02;18.75;;;10.80;;
5247;SDS011;2644;52.420;13.580;2022-08-25T00:54:06;12.52;;;10.48;;
5247;SDS011;2644;52.420;13.580;2022-08-25T00:55:13;15.90;;;9.98;;
5247;SDS011;2644;52.420;13.580;2022-08-25T00:56:19;17.20;;;10.88;;
5247;SDS011;2644;52.420;13.580;2022-08-25T00:57:24;24.80;;;12.95;;
5247;SDS011;2644;52.420;13.580;2022-08-25T00:58:35;20.67;;;10.80;;
5247;SDS011;2644;52.420;13.580;2022-08-25T00:59:37;14.60;;;10.23;;
5247;SDS011;2644;52.420;13.580;2022-08-25T01:00:42;15.82;;;10.13;;
5247;SDS011;2644;52.420;13.580;2022-08-25T01:01:46;14.80;;;10.25;;
5247;SDS011;2644;52.420;13.580;2022-08-25T01:02:52;17.50;;;10.98;;
5247;SDS011;2644;52.420;13.580;2022-08-25T01:03:55;22.08;;;10.65;;
5247;SDS011;2644;52.420;13.580;2022-08-25T01:04:58;15.95;;;10.32;;
5247;SDS011;2644;52.420;13.580;2022-08-25T01:06:01;20.85;;;11.10;;
5247;SDS011;2644;52.420;13.580;2022-08-25T01:07:05;16.27;;;10.85;;
5247;SDS011;2644;52.420;13.580;2022-08-25T01:08:17;27.77;;;10.05;;
5247;SDS011;2644;52.420;13.580;2022-08-25T01:09:21;15.20;;;10.07;;
5247;SDS011;2644;52.420;13.580;2022-08-25T01:10:24;15.23;;;10.38;;
5247;SDS011;2644;52.420;13.580;2022-08-25T01:11:28;19.60;;;11.30;;
5247;SDS011;2644;52.420;13.580;2022-08-25T01:12:31;16.15;;;10.55;;
5247;SDS011;2644;52.420;13.580;2022-08-25T01:13:34;15.15;;;11.02;;
5247;SDS011;2644;52.420;13.580;2022-08-25T01:14:44;13.60;;;10.75;;
5247;SDS011;2644;52.420;13.580;2022-08-25T01:15:47;18.02;;;10.35;;
5247;SDS011;2644;52.420;13.580;2022-08-25T01:16:54;18.48;;;11.07;;
5247;SDS011;2644;52.420;13.580;2022-08-25T01:17:59;13.90;;;10.82;;
5247;SDS011;2644;52.420;13.580;2022-08-25T01:19:03;14.00;;;10.57;;
5247;SDS011;2644;52.420;13.580;2022-08-25T01:20:06;15.95;;;10.63;;
5247;SDS011;2644;52.420;13.580;2022-08-25T01:21:12;15.40;;;10.38;;
5247;SDS011;2644;52.420;13.580;2022-08-25T01:22:14;18.70;;;11.00;;
5247;SDS011;2644;52.420;13.580;2022-08-25T01:23:17;16.92;;;10.70;;
5247;SDS011;2644;52.420;13.580;2022-08-25T01:24:22;22.75;;;10.90;;
5247;SDS011;2644;52.420;13.580;2022-08-25T01:25:32;14.25;;;10.68;;
5247;SDS011;2644;52.420;13.580;2022-08-25T01:26:42;16.58;;;10.50;;
5247;SDS011;2644;52.420;13.580;2022-08-25T01:27:45;19.23;;;10.70;;
5247;SDS011;2644;52.420;13.580;2022-08-25T01:28:48;16.08;;;10.63;;
5247;SDS011;2644;52.420;13.580;2022-08-25T01:30:10;17.90;;;10.75;;
5247;SDS011;2644;52.420;13.580;2022-08-25T01:31:13;18.20;;;11.30;;
5247;SDS011;2644;52.420;13.580;2022-08-25T01:32:24;14.15;;;11.40;;
5247;SDS011;2644;52.420;13.580;2022-08-25T01:33:28;14.02;;;10.70;;
5247;SDS011;2644;52.420;13.580;2022-08-25T01:34:30;17.77;;;11.38;;
5247;SDS011;2644;52.420;13.580;2022-08-25T01:35:36;16.23;;;11.02;;
5247;SDS011;2644;52.420;13.580;2022-08-25T01:36:41;16.88;;;11.65;;
5247;SDS011;2644;52.420;13.580;2022-08-25T01:37:45;16.48;;;11.32;;
5247;SDS011;2644;52.420;13.580;2022-08-25T01:38:48;15.75;;;10.35;;
5247;SDS011;2644;52.420;13.580;2022-08-25T01:39:52;19.42;;;11.23;;
5247;SDS011;2644;52.420;13.580;2022-08-25T01:40:55;17.25;;;11.55;;
5247;SDS011;2644;52.420;13.580;2022-08-25T01:42:02;18.55;;;12.23;;
5247;SDS011;2644;52.420;13.580;2022-08-25T01:43:21;17.50;;;11.57;;
5247;SDS011;2644;52.420;13.580;2022-08-25T01:44:33;24.98;;;11.70;;
5247;SDS011;2644;52.420;13.580;2022-08-25T01:45:37;18.80;;;11.55;;
5247;SDS011;2644;52.420;13.580;2022-08-25T01:46:42;19.02;;;11.40;;
5247;SDS011;2644;52.420;13.580;2022-08-25T01:47:45;15.52;;;10.57;;
5247;SDS011;2644;52.420;13.580;2022-08-25T01:48:48;15.10;;;11.40;;
5247;SDS011;2644;52.420;13.580;2022-08-25T01:49:50;12.77;;;10.35;;
5247;SDS011;2644;52.420;13.580;2022-08-25T01:50:53;16.85;;;11.40;;
5247;SDS011;2644;52.420;13.580;2022-08-25T01:51:59;16.70;;;10.82;;
5247;SDS011;2644;52.420;13.580;2022-08-25T01:53:07;18.00;;;11.55;;
5247;SDS011;2644;52.420;13.580;2022-08-25T01:54:14;19.90;;;11.88;;
5247;SDS011;2644;52.420;13.580;2022-08-25T01:55:18;17.33;;;10.30;;
5247;SDS011;2644;52.420;13.580;2022-08-25T01:56:20;18.02;;;11.23;;
5247;SDS011;2644;52.420;13.580;2022-08-25T01:57:23;13.95;;;10.75;;
5247;SDS011;2644;52.420;13.580;2022-08-25T01:58:27;18.55;;;11.32;;
5247;SDS011;2644;52.420;13.580;2022-08-25T01:59:31;18.30;;;11.18;;
5247;SDS011;2644;52.420;13.580;2022-08-25T02:00:33;18.20;;;11.25;;
5247;SDS011;2644;52.420;13.580;2022-08-25T02:01:36;21.63;;;10.52;;
5247;SDS011;2644;52.420;13.580;2022-08-25T02:02:39;18.05;;;10.95;;
5247;SDS011;2644;52.420;13.580;2022-08-25T02:03:45;21.92;;;11.85;;
5247;SDS011;2644;52.420;13.580;2022-08-25T02:04:49;25.83;;;12.27;;
5247;SDS011;2644;52.420;13.580;2022-08-25T02:05:52;19.90;;;11.90;;
5247;SDS011;2644;52.420;13.580;2022-08-25T02:06:56;14.55;;;12.20;;
5247;SDS011;2644;52.420;13.580;2022-08-25T02:08:00;20.23;;;11.27;;
5247;SDS011;2644;52.420;13.580;2022-08-25T02:09:04;18.13;;;11.63;;
5247;SDS011;2644;52.420;13.580;2022-08-25T02:10:09;15.23;;;11.60;;
5247;SDS011;2644;52.420;13.580;2022-08-25T02:11:13;21.13;;;11.57;;
5247;SDS011;2644;52.420;13.580;2022-08-25T02:12:16;17.98;;;11.55;;
5247;SDS011;2644;52.420;13.580;2022-08-25T02:13:19;18.60;;;11.73;;
5247;SDS011;2644;52.420;13.580;2022-08-25T02:14:27;24.13;;;11.95;;
5247;SDS011;2644;52.420;13.580;2022-08-25T02:15:29;21.85;;;11.70;;
5247;SDS011;2644;52.420;13.580;2022-08-25T02:16:34;14.38;;;11.70;;
5247;SDS011;2644;52.420;13.580;2022-08-25T02:17:38;16.58;;;11.27;;
5247;SDS011;2644;52.420;13.580;2022-08-25T02:18:41;15.55;;;11.30;;
5247;SDS011;2644;52.420;13.580;2022-08-25T02:19:43;25.10;;;12.25;;
5247;SDS011;2644;52.420;13.580;2022-08-25T02:20:46;19.95;;;12.75;;
5247;SDS011;2644;52.420;13.580;2022-08-25T02:21:48;19.13;;;12.80;;
5247;SDS011;2644;52.420;13.580;2022-08-25T02:22:53;17.52;;;11.40;;
5247;SDS011;2644;52.420;13.580;2022-08-25T02:23:57;18.33;;;12.13;;
5247;SDS011;2644;52.420;13.580;2022-08-25T02:25:01;19.73;;;12.05;;
5247;SDS011;2644;52.420;13.580;2022-08-25T02:26:04;17.00;;;11.70;;
5247;SDS011;2644;52.420;13.580;2022-08-25T02:27:07;20.35;;;12.20;;
5247;SDS011;2644;52.420;13.580;2022-08-25T02:28:11;20.48;;;12.50;;
5247;SDS011;2644;52.420;13.580;2022-08-25T02:29:14;18.50;;;11.30;;
5247;SDS011;2644;52.420;13.580;2022-08-25T02:30:17;20.02;;;11.80;;
5247;SDS011;2644;52.420;13.580;2022-08-25T02:31:22;16.58;;;11.05;;
5247;SDS011;2644;52.420;13.580;2022-08-25T02:32:25;22.75;;;11.95;;
5247;SDS011;2644;52.420;13.580;2022-08-25T02:33:29;17.02;;;11.98;;
5247;SDS011;2644;52.420;13.580;2022-08-25T02:34:31;19.10;;;12.90;;
5247;SDS011;2644;52.420;13.580;2022-08-25T02:35:34;16.58;;;12.35;;
5247;SDS011;2644;52.420;13.580;2022-08-25T02:36:37;19.90;;;13.15;;
5247;SDS011;2644;52.420;13.580;2022-08-25T02:37:40;20.05;;;12.98;;
5247;SDS011;2644;52.420;13.580;2022-08-25T02:38:44;18.85;;;12.35;;
5247;SDS011;2644;52.420;13.580;2022-08-25T02:39:47;19.25;;;12.52;;
5247;SDS011;2644;52.420;13.580;2022-08-25T02:40:50;19.65;;;12.07;;
5247;SDS011;2644;52.420;13.580;2022-08-25T02:41:53;22.77;;;12.88;;
5247;SDS011;2644;52.420;13.580;2022-08-25T02:42:56;19.55;;;12.20;;
5247;SDS011;2644;52.420;13.580;2022-08-25T02:43:59;18.20;;;11.80;;
5247;SDS011;2644;52.420;13.580;2022-08-25T02:45:03;22.63;;;12.82;;
5247;SDS011;2644;52.420;13.580;2022-08-25T02:46:08;16.95;;;12.45;;
5247;SDS011;2644;52.420;13.580;2022-08-25T02:47:12;23.33;;;14.05;;
5247;SDS011;2644;52.420;13.580;2022-08-25T02:48:15;18.95;;;12.30;;
5247;SDS011;2644;52.420;13.580;2022-08-25T02:49:18;17.02;;;13.00;;
5247;SDS011;2644;52.420;13.580;2022-08-25T02:50:20;20.60;;;12.25;;
5247;SDS011;2644;52.420;13.580;2022-08-25T02:51:24;20.02;;;12.82;;
5247;SDS011;2644;52.420;13.580;2022-08-25T02:52:28;20.17;;;13.00;;
5247;SDS011;2644;52.420;13.580;2022-08-25T02:53:32;16.75;;;13.00;;
5247;SDS011;2644;52.420;13.580;2022-08-25T02:54:36;20.95;;;12.80;;
5247;SDS011;2644;52.420;13.580;2022-08-25T02:55:39;20.52;;;12.18;;
5247;SDS011;2644;52.420;13.580;2022-08-25T02:56:41;17.20;;;12.40;;
5247;SDS011;2644;52.420;13.580;2022-08-25T02:57:45;21.88;;;13.15;;
5247;SDS011;2644;52.420;13.580;2022-08-25T02:58:48;18.75;;;12.93;;
5247;SDS011;2644;52.420;13.580;2022-08-25T02:59:52;20.95;;;12.82;;
5247;SDS011;2644;52.420;13.580;2022-08-25T03:00:55;21.52;;;12.32;;
5247;SDS011;2644;52.420;13.580;2022-08-25T03:01:58;24.17;;;14.10;;
5247;SDS011;2644;52.420;13.580;2022-08-25T03:03:00;19.10;;;12.73;;
5247;SDS011;2644;52.420;13.580;2022-08-25T03:04:04;21.88;;;14.10;;
5247;SDS011;2644;52.420;13.580;2022-08-25T03:05:07;22.75;;;13.43;;
5247;SDS011;2644;52.420;13.580;2022-08-25T03:06:12;19.75;;;13.07;;
5247;SDS011;2644;52.420;13.580;2022-08-25T03:07:16;22.98;;;12.63;;
5247;SDS011;2644;52.420;13.580;2022-08-25T03:08:21;22.90;;;13.82;;
5247;SDS011;2644;52.420;13.580;2022-08-25T03:09:24;16.90;;;12.68;;
5247;SDS011;2644;52.420;13.580;2022-08-25T03:10:29;21.02;;;13.43;;
5247;SDS011;2644;52.420;13.580;2022-08-25T03:11:32;32.15;;;14.52;;
5247;SDS011;2644;52.420;13.580;2022-08-25T03:12:35;23.80;;;13.30;;
5247;SDS011;2644;52.420;13.580;2022-08-25T03:13:37;19.13;;;13.45;;
5247;SDS011;2644;52.420;13.580;2022-08-25T03:14:42;20.65;;;13.48;;
5247;SDS011;2644;52.420;13.580;2022-08-25T03:15:46;21.58;;;13.10;;
5247;SDS011;2644;52.420;13.580;2022-08-25T03:16:50;16.77;;;12.50;;
5247;SDS011;2644;52.420;13.580;2022-08-25T03:17:55;19.20;;;13.50;;
5247;SDS011;2644;52.420;13.580;2022-08-25T03:19:00;15.43;;;12.35;;
5247;SDS011;2644;52.420;13.580;2022-08-25T03:20:06;22.63;;;14.25;;
5247;SDS011;2644;52.420;13.580;2022-08-25T03:21:10;21.60;;;13.35;;
5247;SDS011;2644;52.420;13.580;2022-08-25T03:22:16;19.25;;;13.70;;
5247;SDS011;2644;52.420;13.580;2022-08-25T03:23:18;21.35;;;13.13;;
5247;SDS011;2644;52.420;13.580;2022-08-25T03:24:21;16.67;;;13.18;;
5247;SDS011;2644;52.420;13.580;2022-08-25T03:25:23;21.02;;;13.63;;
5247;SDS011;2644;52.420;13.580;2022-08-25T03:26:45;20.92;;;13.82;;
5247;SDS011;2644;52.420;13.580;2022-08-25T03:27:55;21.17;;;14.32;;
5247;SDS011;2644;52.420;13.580;2022-08-25T03:28:58;18.70;;;13.05;;
5247;SDS011;2644;52.420;13.580;2022-08-25T03:30:05;22.70;;;12.55;;
5247;SDS011;2644;52.420;13.580;2022-08-25T03:31:09;22.60;;;13.35;;
5247;SDS011;2644;52.420;13.580;2022-08-25T03:32:12;21.40;;;13.20;;
5247;SDS011;2644;52.420;13.580;2022-08-25T03:33:15;21.08;;;14.30;;
5247;SDS011;2644;52.420;13.580;2022-08-25T03:34:17;25.00;;;13.45;;
5247;SDS011;2644;52.420;13.580;2022-08-25T03:35:21;19.30;;;13.60;;
5247;SDS011;2644;52.420;13.580;2022-08-25T03:36:23;19.95;;;14.23;;
5247;SDS011;2644;52.420;13.580;2022-08-25T03:37:27;22.35;;;13.88;;
5247;SDS011;2644;52.420;13.580;2022-08-25T03:38:29;22.33;;;13.60;;
5247;SDS011;2644;52.420;13.580;2022-08-25T03:39:33;20.58;;;13.05;;
5247;SDS011;2644;52.420;13.580;2022-08-25T03:40:36;22.15;;;14.02;;
5247;SDS011;2644;52.420;13.580;2022-08-25T03:41:39;20.95;;;13.50;;
5247;SDS011;2644;52.420;13.580;2022-08-25T03:42:43;18.90;;;13.90;;
5247;SDS011;2644;52.420;13.580;2022-08-25T03:43:47;22.15;;;14.27;;
5247;SDS011;2644;52.420;13.580;2022-08-25T03:44:50;21.77;;;14.00;;
5247;SDS011;2644;52.420;13.580;2022-08-25T03:45:53;26.67;;;14.50;;
5247;SDS011;2644;52.420;13.580;2022-08-25T03:46:55;21.30;;;14.05;;
5247;SDS011;2644;52.420;13.580;2022-08-25T03:47:58;18.70;;;14.30;;
5247;SDS011;2644;52.420;13.580;2022-08-25T03:49:01;26.40;;;14.23;;
5247;SDS011;2644;52.420;13.580;2022-08-25T03:50:05;21.70;;;13.57;;
5247;SDS011;2644;52.420;13.580;2022-08-25T03:51:10;22.48;;;14.13;;
5247;SDS011;2644;52.420;13.580;2022-08-25T03:52:14;20.80;;;14.15;;
5247;SDS011;2644;52.420;13.580;2022-08-25T03:53:18;23.38;;;13.95;;
5247;SDS011;2644;52.420;13.580;2022-08-25T03:54:23;21.08;;;14.00;;
5247;SDS011;2644;52.420;13.580;2022-08-25T03:55:26;23.10;;;14.35;;
5247;SDS011;2644;52.420;13.580;2022-08-25T03:56:33;30.27;;;13.90;;
5247;SDS011;2644;52.420;13.580;2022-08-25T03:57:36;20.60;;;14.80;;
5247;SDS011;2644;52.420;13.580;2022-08-25T03:58:40;22.88;;;14.80;;
5247;SDS011;2644;52.420;13.580;2022-08-25T03:59:43;24.17;;;14.05;;
5247;SDS011;2644;52.420;13.580;2022-08-25T04:00:45;25.27;;;14.10;;
5247;SDS011;2644;52.420;13.580;2022-08-25T04:01:49;19.95;;;14.02;;
5247;SDS011;2644;52.420;13.580;2022-08-25T04:02:57;22.55;;;14.75;;
5247;SDS011;2644;52.420;13.580;2022-08-25T04:04:00;20.40;;;14.75;;
5247;SDS011;2644;52.420;13.580;2022-08-25T04:05:02;25.08;;;14.60;;
5247;SDS011;2644;52.420;13.580;2022-08-25T04:06:06;21.15;;;15.38;;
5247;SDS011;2644;52.420;13.580;2022-08-25T04:07:09;25.92;;;15.13;;
5247;SDS011;2644;52.420;13.580;2022-08-25T04:08:12;24.98;;;16.17;;
5247;SDS011;2644;52.420;13.580;2022-08-25T04:09:15;24.35;;;14.85;;
5247;SDS011;2644;52.420;13.580;2022-08-25T04:10:18;26.77;;;14.85;;
5247;SDS011;2644;52.420;13.580;2022-08-25T04:11:21;26.42;;;15.40;;
5247;SDS011;2644;52.420;13.580;2022-08-25T04:12:24;23.67;;;15.65;;
5247;SDS011;2644;52.420;13.580;2022-08-25T04:13:26;26.95;;;16.02;;
5247;SDS011;2644;52.420;13.580;2022-08-25T04:14:31;25.73;;;15.27;;
5247;SDS011;2644;52.420;13.580;2022-08-25T04:15:34;22.73;;;13.85;;
5247;SDS011;2644;52.420;13.580;2022-08-25T04:16:37;24.42;;;14.20;;
5247;SDS011;2644;52.420;13.580;2022-08-25T04:17:40;26.13;;;16.40;;
5247;SDS011;2644;52.420;13.580;2022-08-25T04:18:47;25.55;;;15.15;;
5247;SDS011;2644;52.420;13.580;2022-08-25T04:19:50;29.25;;;15.27;;
5247;SDS011;2644;52.420;13.580;2022-08-25T04:21:00;24.50;;;15.57;;
5247;SDS011;2644;52.420;13.580;2022-08-25T04:22:04;26.65;;;15.13;;
5247;SDS011;2644;52.420;13.580;2022-08-25T04:23:06;23.13;;;16.55;;
5247;SDS011;2644;52.420;13.580;2022-08-25T04:24:10;29.35;;;15.85;;
5247;SDS011;2644;52.420;13.580;2022-08-25T04:25:12;25.45;;;16.58;;
5247;SDS011;2644;52.420;13.580;2022-08-25T04:26:16;24.38;;;15.80;;
5247;SDS011;2644;52.420;13.580;2022-08-25T04:27:21;26.92;;;15.85;;
5247;SDS011;2644;52.420;13.580;2022-08-25T04:28:24;23.52;;;15.68;;
5247;SDS011;2644;52.420;13.580;2022-08-25T04:29:26;26.20;;;16.33;;
5247;SDS011;2644;52.420;13.580;2022-08-25T04:30:31;21.67;;;15.68;;
5247;SDS011;2644;52.420;13.580;2022-08-25T04:31:35;26.58;;;15.02;;
5247;SDS011;2644;52.420;13.580;2022-08-25T04:32:40;27.88;;;16.08;;
5247;SDS011;2644;52.420;13.580;2022-08-25T04:33:42;25.25;;;16.38;;
5247;SDS011;2644;52.420;13.580;2022-08-25T04:34:46;23.15;;;15.82;;
5247;SDS011;2644;52.420;13.580;2022-08-25T04:35:49;23.63;;;15.30;;
5247;SDS011;2644;52.420;13.580;2022-08-25T04:36:52;24.38;;;16.25;;
5247;SDS011;2644;52.420;13.580;2022-08-25T04:37:55;23.88;;;14.68;;
5247;SDS011;2644;52.420;13.580;2022-08-25T04:38:58;22.88;;;15.77;;
5247;SDS011;2644;52.420;13.580;2022-08-25T04:40:00;20.27;;;15.20;;
5247;SDS011;2644;52.420;13.580;2022-08-25T04:41:05;25.48;;;15.50;;
5247;SDS011;2644;52.420;13.580;2022-08-25T04:42:07;21.15;;;14.55;;
5247;SDS011;2644;52.420;13.580;2022-08-25T04:43:11;26.63;;;15.55;;
5247;SDS011;2644;52.420;13.580;2022-08-25T04:44:13;22.65;;;14.30;;
5247;SDS011;2644;52.420;13.580;2022-08-25T04:45:16;23.27;;;15.02;;
5247;SDS011;2644;52.420;13.580;2022-08-25T04:46:21;27.42;;;15.23;;
5247;SDS011;2644;52.420;13.580;2022-08-25T04:47:25;24.58;;;15.50;;
5247;SDS011;2644;52.420;13.580;2022-08-25T04:48:29;30.20;;;16.77;;
5247;SDS011;2644;52.420;13.580;2022-08-25T04:49:33;24.58;;;16.65;;
5247;SDS011;2644;52.420;13.580;2022-08-25T04:50:37;28.25;;;16.45;;
5247;SDS011;2644;52.420;13.580;2022-08-25T04:51:40;24.85;;;16.70;;
5247;SDS011;2644;52.420;13.580;2022-08-25T04:52:44;25.05;;;14.82;;
5247;SDS011;2644;52.420;13.580;2022-08-25T04:53:47;21.35;;;14.93;;
5247;SDS011;2644;52.420;13.580;2022-08-25T04:54:49;23.80;;;15.52;;
5247;SDS011;2644;52.420;13.580;2022-08-25T04:55:52;20.40;;;14.95;;
5247;SDS011;2644;52.420;13.580;2022-08-25T04:56:54;27.45;;;15.25;;
5247;SDS011;2644;52.420;13.580;2022-08-25T04:57:59;27.42;;;15.20;;
5247;SDS011;2644;52.420;13.580;2022-08-25T04:59:02;33.88;;;15.40;;
5247;SDS011;2644;52.420;13.580;2022-08-25T05:00:06;20.20;;;14.52;;
5247;SDS011;2644;52.420;13.580;2022-08-25T05:01:10;24.00;;;15.55;;
5247;SDS011;2644;52.420;13.580;2022-08-25T05:02:17;32.30;;;15.10;;
5247;SDS011;2644;52.420;13.580;2022-08-25T05:03:19;30.60;;;16.63;;
5247;SDS011;2644;52.420;13.580;2022-08-25T05:04:23;21.65;;;15.93;;
5247;SDS011;2644;52.420;13.580;2022-08-25T05:05:29;21.98;;;14.82;;
5247;SDS011;2644;52.420;13.580;2022-08-25T05:06:34;25.73;;;14.23;;
5247;SDS011;2644;52.420;13.580;2022-08-25T05:07:36;22.55;;;15.68;;
5247;SDS011;2644;52.420;13.580;2022-08-25T05:08:39;22.88;;;15.23;;
5247;SDS011;2644;52.420;13.580;2022-08-25T05:09:41;27.92;;;15.23;;
5247;SDS011;2644;52.420;13.580;2022-08-25T05:12:18;26.10;;;16.27;;
5247;SDS011;2644;52.420;13.580;2022-08-25T05:13:22;27.50;;;16.55;;
5247;SDS011;2644;52.420;13.580;2022-08-25T05:14:24;20.85;;;14.48;;
5247;SDS011;2644;52.420;13.580;2022-08-25T05:15:27;22.10;;;15.45;;
5247;SDS011;2644;52.420;13.580;2022-08-25T05:16:51;25.80;;;16.42;;
5247;SDS011;2644;52.420;13.580;2022-08-25T05:17:55;28.27;;;16.00;;
5247;SDS011;2644;52.420;13.580;2022-08-25T05:18:58;28.88;;;17.05;;
5247;SDS011;2644;52.420;13.580;2022-08-25T05:20:01;24.17;;;16.33;;
5247;SDS011;2644;52.420;13.580;2022-08-25T05:21:04;22.38;;;15.90;;
5247;SDS011;2644;52.420;13.580;2022-08-25T05:22:09;28.70;;;16.20;;
5247;SDS011;2644;52.420;13.580;2022-08-25T05:23:11;25.88;;;15.32;;
5247;SDS011;2644;52.420;13.580;2022-08-25T05:24:14;25.08;;;17.20;;
5247;SDS011;2644;52.420;13.580;2022-08-25T05:25:18;27.27;;;16.75;;
5247;SDS011;2644;52.420;13.580;2022-08-25T05:26:21;26.63;;;17.30;;
5247;SDS011;2644;52.420;13.580;2022-08-25T05:27:25;36.35;;;17.23;;
5247;SDS011;2644;52.420;13.580;2022-08-25T05:28:27;24.80;;;16.73;;
5247;SDS011;2644;52.420;13.580;2022-08-25T05:29:30;31.23;;;16.63;;
5247;SDS011;2644;52.420;13.580;2022-08-25T05:30:35;23.60;;;16.42;;
5247;SDS011;2644;52.420;13.580;2022-08-25T05:31:38;26.75;;;16.88;;
5247;SDS011;2644;52.420;13.580;2022-08-25T05:32:45;26.95;;;16.10;;
5247;SDS011;2644;52.420;13.580;2022-08-25T05:33:50;25.02;;;15.63;;
5247;SDS011;2644;52.420;13.580;2022-08-25T05:34:52;22.65;;;15.30;;
5247;SDS011;2644;52.420;13.580;2022-08-25T05:35:56;29.38;;;16.48;;
5247;SDS011;2644;52.420;13.580;2022-08-25T05:36:58;26.80;;;16.33;;
5247;SDS011;2644;52.420;13.580;2022-08-25T05:38:05;32.08;;;16.40;;
5247;SDS011;2644;52.420;13.580;2022-08-25T05:39:15;32.75;;;17.70;;
5247;SDS011;2644;52.420;13.580;2022-08-25T05:40:18;36.10;;;17.83;;
5247;SDS011;2644;52.420;13.580;2022-08-25T05:41:21;30.38;;;18.05;;
5247;SDS011;2644;52.420;13.580;2022-08-25T05:42:28;40.15;;;18.50;;
5247;SDS011;2644;52.420;13.580;2022-08-25T05:43:30;30.42;;;17.95;;
5247;SDS011;2644;52.420;13.580;2022-08-25T05:44:34;37.72;;;17.17;;
5247;SDS011;2644;52.420;13.580;2022-08-25T05:45:36;31.23;;;19.20;;
5247;SDS011;2644;52.420;13.580;2022-08-25T05:46:39;31.95;;;19.38;;
5247;SDS011;2644;52.420;13.580;2022-08-25T05:47:43;35.95;;;19.45;;
5247;SDS011;2644;52.420;13.580;2022-08-25T05:48:45;39.38;;;19.52;;
5247;SDS011;2644;52.420;13.580;2022-08-25T05:49:50;41.40;;;19.98;;
5247;SDS011;2644;52.420;13.580;2022-08-25T05:50:53;37.45;;;21.52;;
5247;SDS011;2644;52.420;13.580;2022-08-25T05:51:56;46.72;;;20.80;;
5247;SDS011;2644;52.420;13.580;2022-08-25T05:52:59;36.95;;;21.42;;
5247;SDS011;2644;52.420;13.580;2022-08-25T05:54:02;38.65;;;21.35;;
5247;SDS011;2644;52.420;13.580;2022-08-25T05:55:06;44.65;;;23.38;;
5247;SDS011;2644;52.420;13.580;2022-08-25T05:56:09;42.50;;;23.33;;
5247;SDS011;2644;52.420;13.580;2022-08-25T05:57:14;49.60;;;24.13;;
5247;SDS011;2644;52.420;13.580;2022-08-25T05:58:16;41.72;;;22.13;;
5247;SDS011;2644;52.420;13.580;2022-08-25T05:59:19;43.67;;;24.08;;
5247;SDS011;2644;52.420;13.580;2022-08-25T06:00:22;44.90;;;24.10;;
5247;SDS011;2644;52.420;13.580;2022-08-25T06:01:25;46.55;;;22.95;;
5247;SDS011;2644;52.420;13.580;2022-08-25T06:02:48;43.45;;;23.65;;
5247;SDS011;2644;52.420;13.580;2022-08-25T06:03:51;46.38;;;24.10;;
5247;SDS011;2644;52.420;13.580;2022-08-25T06:04:56;48.03;;;25.63;;
5247;SDS011;2644;52.420;13.580;2022-08-25T06:06:03;55.15;;;26.30;;
5247;SDS011;2644;52.420;13.580;2022-08-25T06:07:07;46.53;;;25.33;;
5247;SDS011;2644;52.420;13.580;2022-08-25T06:08:10;52.22;;;27.38;;
5247;SDS011;2644;52.420;13.580;2022-08-25T06:09:13;52.00;;;26.35;;
5247;SDS011;2644;52.420;13.580;2022-08-25T06:10:17;57.30;;;27.63;;
5247;SDS011;2644;52.420;13.580;2022-08-25T06:11:20;60.45;;;29.10;;
5247;SDS011;2644;52.420;13.580;2022-08-25T06:12:23;56.25;;;27.35;;
5247;SDS011;2644;52.420;13.580;2022-08-25T06:13:25;51.97;;;28.75;;
5247;SDS011;2644;52.420;13.580;2022-08-25T06:14:29;55.95;;;28.90;;
5247;SDS011;2644;52.420;13.580;2022-08-25T06:15:32;52.83;;;28.30;;
5247;SDS011;2644;52.420;13.580;2022-08-25T06:16:34;60.22;;;29.95;;
5247;SDS011;2644;52.420;13.580;2022-08-25T06:17:37;55.05;;;28.80;;
5247;SDS011;2644;52.420;13.580;2022-08-25T06:18:42;58.92;;;29.27;;
5247;SDS011;2644;52.420;13.580;2022-08-25T06:19:45;68.70;;;29.13;;
5247;SDS011;2644;52.420;13.580;2022-08-25T06:20:49;50.78;;;27.85;;
5247;SDS011;2644;52.420;13.580;2022-08-25T06:21:52;57.47;;;28.50;;
5247;SDS011;2644;52.420;13.580;2022-08-25T06:22:57;52.47;;;28.40;;